»·PEaware :: N6262K KVNY-KSNA

N6262K :: KVNY-KSNA

FLIGHT INFORMATION

Flight Status: Arrived
Operator: Privately registered:
United States
More flights under this callsign
Pilot: Judson K. (15650)
Aircraft: Unknown
(P28U)
More flights by this aircraft type
Origin: KVNY Van Nuys
United States
Destination: KSNA John Wayne-Orange Co
United States
More flights between these airports :: More routes between these airports
Route: +
File this flight plan on PilotEdge
Remarks:
Altitude:
(Current/Filed)
5,500ft
Speed:
(Current/Filed)
240kts
Departed: 27-Dec-17 08:35 PM
Arrived: 27-Dec-17 09:15 PM
Distance/Time
Traveled:
44nm/0:40
Distance/Time
To Go:
Arrived

Flight Plot

Page will automatically refresh every two minutes.


Map Options




Map Legend


Flown Route
Filed Route
Departure Airport
Arrival Airport
Navaid (VOR, NDB)
Fix

Horizontal Profiles

Position Reports

Time Latitude Longitude Heading Altitude Ground
Speed
27-Dec-17 20:34 34.206013 -118.491623 46 769ft 0kts
27-Dec-17 20:35 34.206135 -118.491461 48 769ft 2kts
27-Dec-17 20:36 34.207900 -118.491323 356 773ft 16kts
27-Dec-17 20:37 34.212312 -118.491753 358 783ft 15kts
27-Dec-17 20:38 34.217343 -118.492270 1 795ft 16kts
27-Dec-17 20:39 34.218704 -118.492090 60 798ft 0kts
27-Dec-17 20:40 34.218704 -118.492090 60 798ft 0kts
27-Dec-17 20:41 34.211378 -118.490425 173 849ft 94kts
27-Dec-17 20:42 34.181297 -118.494235 195 2053ft 117kts
27-Dec-17 20:43 34.147789 -118.505238 195 3005ft 130kts
27-Dec-17 20:44 34.113858 -118.516354 195 3963ft 121kts
27-Dec-17 20:45 34.081710 -118.505656 159 4980ft 120kts
27-Dec-17 20:46 34.050943 -118.491569 159 5487ft 135kts
27-Dec-17 20:47 34.038735 -118.459530 33 5470ft 140kts
27-Dec-17 20:48 34.076157 -118.446293 16 5224ft 139kts
27-Dec-17 20:49 34.110838 -118.436872 351 4358ft 121kts
27-Dec-17 20:50 34.128746 -118.467716 295 4037ft 114kts
27-Dec-17 20:51 34.141857 -118.501975 314 4364ft 135kts
27-Dec-17 20:52 34.163194 -118.529102 314 4459ft 95kts
27-Dec-17 20:53 34.181711 -118.552854 311 4786ft 107kts
27-Dec-17 20:54 34.205427 -118.578558 321 5490ft 136kts
27-Dec-17 20:55 34.197200 -118.610236 184 5468ft 154kts
27-Dec-17 20:56 34.163045 -118.568955 134 5479ft 154kts
27-Dec-17 20:57 34.135014 -118.542025 147 5479ft 154kts
27-Dec-17 20:58 34.097899 -118.517130 153 5479ft 154kts
27-Dec-17 20:59 34.053262 -118.492477 156 5479ft 148kts
27-Dec-17 21:00 34.024670 -118.477799 157 5471ft 104kts
27-Dec-17 21:01 33.997641 -118.464108 156 5478ft 107kts
27-Dec-17 21:02 33.969829 -118.449898 158 5480ft 110kts
27-Dec-17 21:03 33.941631 -118.435967 160 5479ft 109kts
27-Dec-17 21:04 33.918876 -118.418328 138 5479ft 109kts
27-Dec-17 21:05 33.897346 -118.394045 139 5479ft 109kts
27-Dec-17 21:06 33.875015 -118.369409 139 5479ft 109kts
27-Dec-17 21:07 33.852691 -118.344978 139 5479ft 109kts
27-Dec-17 21:08 33.828658 -118.318830 139 5483ft 137kts
27-Dec-17 21:09 33.798769 -118.286842 139 5480ft 148kts
27-Dec-17 21:10 33.768428 -118.254127 139 5479ft 146kts
27-Dec-17 21:11 33.741628 -118.219015 98 5371ft 152kts
27-Dec-17 21:12 33.740025 -118.167241 92 4909ft 153kts
27-Dec-17 21:13 33.738564 -118.115633 92 4263ft 159kts
27-Dec-17 21:14 33.734793 -118.066380 99 3560ft 139kts
27-Dec-17 21:15 33.728582 -118.023628 99 3485ft 123kts
27-Dec-17 21:16 33.722027 -117.980448 99 3486ft 139kts
27-Dec-17 21:17 33.714683 -117.934551 100 3117ft 144kts
27-Dec-17 21:18 33.709930 -117.899764 97 2047ft 85kts
27-Dec-17 21:19 33.704817 -117.871633 102 1067ft 98kts
27-Dec-17 21:20 33.691513 -117.858765 211 390ft 75kts
27-Dec-17 21:21 33.677929 -117.867866 262 59ft 15kts
27-Dec-17 21:22 33.675796 -117.870628 308 59ft 13kts
27-Dec-17 21:23 33.675920 -117.871129 201 59ft 0kts
27-Dec-17 21:24 33.675920 -117.871129 201 59ft 0kts
27-Dec-17 21:25 33.675920 -117.871129 201 59ft 0kts
27-Dec-17 21:26 33.675920 -117.871129 201 59ft 0kts
27-Dec-17 21:27 33.675920 -117.871129 201 59ft 0kts

Navigation Log

Ident Type
1. KVNY Airport
2. KSNA Airport